createdAt,value
2022-10-04T00:00:16.878Z,2.10
2022-10-04T00:01:17.228Z,2.10
2022-10-04T00:02:17.613Z,1.90
2022-10-04T00:03:17.971Z,1.80
2022-10-04T00:04:18.196Z,1.80
2022-10-04T00:05:18.537Z,1.80
2022-10-04T00:06:18.849Z,2.10
2022-10-04T00:07:19.190Z,2.10
2022-10-04T00:08:19.527Z,1.90
2022-10-04T00:09:19.861Z,2.50
2022-10-04T00:10:20.197Z,2.60
2022-10-04T00:11:20.537Z,1.90
2022-10-04T00:12:20.917Z,2.30
2022-10-04T00:13:21.114Z,2.20
2022-10-04T00:14:21.449Z,1.90
2022-10-04T00:15:21.791Z,1.80
2022-10-04T00:16:22.171Z,1.60
2022-10-04T00:17:22.391Z,2.30
2022-10-04T00:18:22.726Z,2.20
2022-10-04T00:19:23.064Z,1.80
2022-10-04T00:20:23.403Z,1.70
2022-10-04T00:21:23.731Z,2.10
2022-10-04T00:22:24.151Z,1.30
2022-10-04T00:23:24.383Z,2.10
2022-10-04T00:24:24.703Z,2.50
2022-10-04T00:25:25.031Z,2.10
2022-10-04T00:26:25.375Z,1.90
2022-10-04T00:27:26.590Z,2.50
2022-10-04T00:28:26.077Z,2.10
2022-10-04T00:29:26.297Z,2.30
2022-10-04T00:30:26.635Z,1.70
2022-10-04T00:31:27.043Z,1.80
2022-10-04T00:32:27.323Z,2.20
2022-10-04T00:33:27.544Z,1.90
2022-10-04T00:34:30.157Z,2.10
2022-10-04T00:35:28.046Z,1.80
2022-10-04T00:36:28.255Z,1.90
2022-10-04T00:37:28.622Z,1.60
2022-10-04T00:38:28.932Z,2.00
2022-10-04T00:39:29.271Z,2.00
2022-10-04T00:40:29.599Z,2.30
2022-10-04T00:41:29.926Z,2.10
2022-10-04T00:42:30.278Z,1.70
2022-10-04T00:43:30.471Z,2.50
2022-10-04T00:44:30.789Z,2.30
2022-10-04T00:45:31.112Z,2.30
2022-10-04T00:46:31.499Z,2.60
2022-10-04T00:47:31.950Z,2.70
2022-10-04T00:48:32.031Z,2.00
2022-10-04T00:49:32.382Z,2.00
2022-10-04T00:50:32.703Z,2.10
2022-10-04T00:51:33.053Z,2.30
2022-10-04T00:52:33.287Z,2.10
2022-10-04T00:53:33.499Z,2.30
2022-10-04T00:54:33.824Z,2.10
2022-10-04T00:55:34.143Z,2.10
2022-10-04T00:56:34.501Z,2.40
2022-10-04T00:57:34.751Z,2.10
2022-10-04T00:58:34.945Z,1.80
2022-10-04T00:59:35.271Z,2.20
2022-10-04T01:00:35.593Z,2.70
2022-10-04T01:01:35.913Z,1.70
2022-10-04T01:02:36.292Z,2.40
2022-10-04T01:03:36.488Z,2.10
2022-10-04T01:04:36.850Z,2.50
2022-10-04T01:05:37.068Z,2.20
2022-10-04T01:06:37.409Z,1.90
2022-10-04T01:07:37.782Z,2.20
2022-10-04T01:08:37.978Z,2.50
2022-10-04T01:09:38.317Z,2.40
2022-10-04T01:10:38.650Z,1.70
2022-10-04T01:11:39.124Z,2.40
2022-10-04T01:12:39.217Z,2.20
2022-10-04T01:13:39.561Z,2.20
2022-10-04T01:14:39.902Z,2.50
2022-10-04T01:15:40.295Z,1.90
2022-10-04T01:16:40.504Z,2.30
2022-10-04T01:17:40.848Z,1.80
2022-10-04T01:18:41.234Z,2.30
2022-10-04T01:19:41.442Z,2.20
2022-10-04T01:20:41.785Z,2.50
2022-10-04T01:21:42.295Z,1.70
2022-10-04T01:22:42.383Z,2.60
2022-10-04T01:23:42.705Z,2.30
2022-10-04T01:24:43.022Z,2.30
2022-10-04T01:25:43.349Z,2.20
2022-10-04T01:26:43.684Z,2.60
2022-10-04T01:27:44.053Z,2.20
2022-10-04T01:28:44.254Z,2.10
2022-10-04T01:29:44.583Z,2.00
2022-10-04T01:30:44.918Z,2.30
2022-10-04T01:31:45.670Z,2.50
2022-10-04T01:32:45.659Z,2.20
2022-10-04T01:33:45.835Z,2.20
2022-10-04T01:34:46.189Z,2.60
2022-10-04T01:35:46.514Z,1.70
2022-10-04T01:36:46.855Z,2.70
2022-10-04T01:37:47.217Z,2.50
2022-10-04T01:38:47.407Z,2.30
2022-10-04T01:39:47.737Z,1.70
2022-10-04T01:40:48.080Z,1.60
2022-10-04T01:41:48.406Z,2.70
2022-10-04T01:42:48.767Z,1.90
2022-10-04T01:43:48.960Z,2.40
2022-10-04T01:44:49.288Z,1.90
2022-10-04T01:45:49.614Z,1.70
2022-10-04T01:46:50.017Z,2.40
2022-10-04T01:47:50.254Z,2.20
2022-10-04T01:48:50.573Z,2.50
2022-10-04T01:49:50.910Z,2.60
2022-10-04T01:50:51.233Z,1.60
2022-10-04T01:51:51.580Z,1.90
2022-10-04T01:52:51.931Z,2.50
2022-10-04T01:53:52.143Z,2.70
2022-10-04T01:54:52.469Z,2.30
2022-10-04T01:55:52.799Z,2.30
2022-10-04T01:56:53.122Z,2.00
2022-10-04T01:57:53.453Z,1.70
2022-10-04T01:58:53.815Z,1.80
2022-10-04T01:59:54.023Z,2.30
2022-10-04T02:00:54.388Z,2.00
2022-10-04T02:01:54.614Z,2.40
2022-10-04T02:02:54.955Z,2.50
2022-10-04T02:03:55.287Z,2.60
2022-10-04T02:04:55.723Z,2.10
2022-10-04T02:05:55.943Z,2.30
2022-10-04T02:06:56.255Z,2.20
2022-10-04T02:07:56.615Z,2.60
2022-10-04T02:08:56.816Z,2.20
2022-10-04T02:09:57.145Z,2.50
2022-10-04T02:10:57.483Z,2.00
2022-10-04T02:11:57.807Z,2.30
2022-10-04T02:12:58.151Z,2.10
2022-10-04T02:13:58.503Z,2.70
2022-10-04T02:14:58.836Z,2.40
2022-10-04T02:15:59.223Z,2.30
2022-10-04T02:16:59.438Z,1.90
2022-10-04T02:17:59.780Z,2.00
2022-10-04T02:19:00.139Z,2.90
2022-10-04T02:20:00.357Z,2.30
2022-10-04T02:21:00.701Z,2.40
2022-10-04T02:22:01.050Z,3.10
2022-10-04T02:23:01.310Z,2.60
2022-10-04T02:24:01.498Z,2.50
2022-10-04T02:25:01.851Z,2.40
2022-10-04T02:26:02.201Z,2.30
2022-10-04T02:27:02.421Z,2.50
2022-10-04T02:28:02.851Z,2.40
2022-10-04T02:29:03.069Z,2.20
2022-10-04T02:30:03.392Z,2.40
2022-10-04T02:31:03.742Z,2.10
2022-10-04T02:32:04.149Z,2.70
2022-10-04T02:33:04.252Z,2.40
2022-10-04T02:34:04.574Z,2.90
2022-10-04T02:35:04.966Z,2.40
2022-10-04T02:36:05.143Z,2.20
2022-10-04T02:37:05.404Z,2.10
2022-10-04T02:38:05.766Z,2.30
2022-10-04T02:39:05.984Z,2.00
2022-10-04T02:40:06.298Z,2.40
2022-10-04T02:41:06.641Z,2.50
2022-10-04T02:42:06.986Z,1.90
2022-10-04T02:43:07.195Z,2.50
2022-10-04T02:44:07.518Z,2.30
2022-10-04T02:45:07.861Z,2.30
2022-10-04T02:46:08.207Z,2.50
2022-10-04T02:47:08.477Z,2.20
2022-10-04T02:48:08.809Z,2.30
2022-10-04T02:49:09.131Z,2.20
2022-10-04T02:50:09.452Z,2.60
2022-10-04T02:51:09.794Z,2.40
2022-10-04T02:52:10.152Z,2.20
2022-10-04T02:53:10.338Z,2.30
2022-10-04T02:54:10.701Z,2.80
2022-10-04T02:55:10.916Z,2.20
2022-10-04T02:56:11.263Z,2.40
2022-10-04T02:57:11.591Z,2.10
2022-10-04T02:58:11.929Z,2.40
2022-10-04T02:59:12.264Z,2.00
2022-10-04T03:00:12.587Z,2.10
2022-10-04T03:01:12.938Z,2.70
2022-10-04T03:02:13.219Z,2.20
2022-10-04T03:03:13.442Z,2.20
2022-10-04T03:04:13.763Z,2.70
2022-10-04T03:05:14.083Z,2.30
2022-10-04T03:06:14.433Z,2.00
2022-10-04T03:07:14.767Z,2.50
2022-10-04T03:08:15.095Z,2.10
2022-10-04T03:09:15.444Z,2.10
2022-10-04T03:10:15.665Z,2.90
2022-10-04T03:11:16.010Z,2.20
2022-10-04T03:12:16.352Z,2.00
2022-10-04T03:13:16.675Z,2.20
2022-10-04T03:14:24.762Z,3.10
2022-10-04T03:15:17.378Z,2.50
2022-10-04T03:16:17.741Z,2.20
2022-10-04T03:17:17.940Z,2.10
2022-10-04T03:18:18.180Z,2.50
2022-10-04T03:19:18.419Z,2.40
2022-10-04T03:20:18.654Z,2.50
2022-10-04T03:21:18.870Z,2.20
2022-10-04T03:22:19.220Z,1.80
2022-10-04T03:23:19.552Z,2.40
2022-10-04T03:24:19.890Z,2.50
2022-10-04T03:25:20.241Z,2.50
2022-10-04T03:26:20.504Z,2.20
2022-10-04T03:27:20.723Z,2.60
2022-10-04T03:28:21.121Z,2.30
2022-10-04T03:29:21.322Z,2.00
2022-10-04T03:30:21.663Z,2.30
2022-10-04T03:31:21.968Z,2.10
2022-10-04T03:32:22.195Z,2.10
2022-10-04T03:33:22.403Z,2.30
2022-10-04T03:34:22.747Z,2.30
2022-10-04T03:35:23.084Z,1.90
2022-10-04T03:36:23.434Z,2.00
2022-10-04T03:37:23.795Z,2.10
2022-10-04T03:38:24.077Z,2.10
2022-10-04T03:39:24.276Z,2.10
2022-10-04T03:40:24.617Z,2.40
2022-10-04T03:41:24.978Z,2.20
2022-10-04T03:42:25.206Z,2.40
2022-10-04T03:43:25.567Z,2.20
2022-10-04T03:44:25.778Z,1.80
2022-10-04T03:45:26.180Z,2.10
2022-10-04T03:46:26.449Z,2.10
2022-10-04T03:47:26.687Z,1.90
2022-10-04T03:48:26.927Z,1.90
2022-10-04T03:49:27.142Z,2.20
2022-10-04T03:50:27.473Z,2.30
2022-10-04T03:51:27.812Z,2.20
2022-10-04T03:52:28.181Z,2.70
2022-10-04T03:53:28.419Z,1.80
2022-10-04T03:54:28.656Z,2.00
2022-10-04T03:55:28.991Z,2.10
2022-10-04T03:56:29.230Z,2.40
2022-10-04T03:57:29.480Z,2.20
2022-10-04T03:58:29.685Z,2.00
2022-10-04T03:59:30.034Z,3.20
2022-10-04T04:00:30.376Z,2.00
2022-10-04T04:01:30.758Z,2.10
2022-10-04T04:02:31.046Z,2.30
2022-10-04T04:03:31.265Z,1.90
2022-10-04T04:04:31.613Z,2.40
2022-10-04T04:05:31.965Z,1.90
2022-10-04T04:06:32.186Z,2.20
2022-10-04T04:07:32.558Z,2.10
2022-10-04T04:08:32.786Z,2.50
2022-10-04T04:09:32.994Z,2.50
2022-10-04T04:10:33.351Z,1.70
2022-10-04T04:11:33.689Z,2.30
2022-10-04T04:12:33.936Z,2.00
2022-10-04T04:13:34.150Z,2.20
2022-10-04T04:14:34.511Z,2.10
2022-10-04T04:15:34.714Z,2.50
2022-10-04T04:16:35.156Z,2.00
2022-10-04T04:17:35.397Z,2.50
2022-10-04T04:18:35.597Z,2.40
2022-10-04T04:19:35.947Z,2.30
2022-10-04T04:20:36.158Z,2.40
2022-10-04T04:21:36.516Z,1.90
2022-10-04T04:22:36.748Z,2.10
2022-10-04T04:23:36.988Z,2.60
2022-10-04T04:24:37.221Z,2.20
2022-10-04T04:25:37.455Z,2.20
2022-10-04T04:26:37.711Z,2.50
2022-10-04T04:27:37.988Z,2.50
2022-10-04T04:28:38.271Z,2.20
2022-10-04T04:29:38.541Z,2.70
2022-10-04T04:30:38.792Z,2.80
2022-10-04T04:31:39.100Z,2.10
2022-10-04T04:32:39.322Z,2.00
2022-10-04T04:33:39.573Z,2.40
2022-10-04T04:34:39.803Z,2.40
2022-10-04T04:35:40.170Z,2.10
2022-10-04T04:36:40.404Z,1.90
2022-10-04T04:37:40.763Z,3.30
2022-10-04T04:38:40.963Z,2.10
2022-10-04T04:39:41.310Z,2.30
2022-10-04T04:40:41.642Z,2.70
2022-10-04T04:41:44.676Z,3.00
2022-10-04T04:42:43.324Z,2.20
2022-10-04T04:43:42.603Z,2.00
2022-10-04T04:44:42.966Z,2.70
2022-10-04T04:45:43.250Z,2.10
2022-10-04T04:46:43.598Z,2.40
2022-10-04T04:47:43.857Z,2.30
2022-10-04T04:48:44.100Z,3.10
2022-10-04T04:49:44.345Z,2.80
2022-10-04T04:50:44.650Z,2.40
2022-10-04T04:51:44.903Z,2.30
2022-10-04T04:52:45.156Z,3.10
2022-10-04T04:53:45.418Z,2.50
2022-10-04T04:54:45.658Z,2.10
2022-10-04T04:56:02.973Z,2.20
2022-10-04T04:56:47.228Z,2.00
2022-10-04T04:57:46.558Z,2.00
2022-10-04T04:58:46.807Z,2.30
2022-10-04T04:59:47.037Z,1.80
2022-10-04T05:00:47.309Z,2.00
2022-10-04T05:01:47.657Z,2.50
2022-10-04T05:02:47.892Z,2.20
2022-10-04T05:03:48.120Z,2.30
2022-10-04T05:04:48.464Z,2.40
2022-10-04T05:05:48.701Z,2.30
2022-10-04T05:06:49.053Z,2.00
2022-10-04T05:07:49.302Z,2.50
2022-10-04T05:08:49.531Z,2.00
2022-10-04T05:09:49.782Z,2.40
2022-10-04T05:10:50.029Z,2.30
2022-10-04T05:11:50.276Z,2.60
2022-10-04T05:12:50.513Z,1.90
2022-10-04T05:13:50.752Z,2.20
2022-10-04T05:14:51.003Z,2.20
2022-10-04T05:15:51.251Z,2.20
2022-10-04T05:16:51.525Z,2.40
2022-10-04T05:17:51.753Z,2.30
2022-10-04T05:18:51.986Z,5.60
2022-10-04T05:19:52.233Z,3.50
2022-10-04T05:20:52.465Z,2.70
2022-10-04T05:21:52.747Z,3.20
2022-10-04T05:22:53.005Z,3.00
2022-10-04T05:23:53.244Z,2.50
2022-10-04T05:24:53.487Z,2.40
2022-10-04T05:25:53.736Z,2.60
2022-10-04T05:26:53.991Z,2.80
2022-10-04T05:27:54.266Z,2.30
2022-10-04T05:28:54.522Z,2.00
2022-10-04T05:29:54.778Z,2.20
2022-10-04T05:30:55.004Z,2.70
2022-10-04T05:31:55.546Z,2.60
2022-10-04T05:32:55.665Z,2.30
2022-10-04T05:33:55.923Z,2.70
2022-10-04T05:34:56.158Z,2.50
2022-10-04T05:35:56.549Z,2.50
2022-10-04T05:36:56.781Z,2.30
2022-10-04T05:37:57.080Z,2.20
2022-10-04T05:38:57.361Z,2.40
2022-10-04T05:39:57.590Z,2.30
2022-10-04T05:40:57.846Z,1.90
2022-10-04T05:41:58.081Z,2.20
2022-10-04T05:42:58.330Z,2.20
2022-10-04T05:43:58.591Z,2.10
2022-10-04T05:44:58.841Z,2.50
2022-10-04T05:45:59.157Z,2.10
2022-10-04T05:46:59.402Z,2.40
2022-10-04T05:47:59.643Z,2.60
2022-10-04T05:48:59.873Z,2.60
2022-10-04T05:50:00.364Z,1.80
2022-10-04T05:51:00.573Z,1.50
2022-10-04T05:52:00.834Z,2.50
2022-10-04T05:53:01.097Z,2.00
2022-10-04T05:54:01.334Z,1.60
2022-10-04T05:55:01.573Z,2.40
2022-10-04T05:56:01.825Z,2.00
2022-10-04T05:57:02.067Z,2.10
2022-10-04T05:58:02.306Z,2.00
2022-10-04T05:59:02.534Z,2.30
2022-10-04T06:00:04.545Z,2.20
2022-10-04T06:01:03.094Z,2.00
2022-10-04T06:02:03.412Z,1.90
2022-10-04T06:03:03.555Z,2.10
2022-10-04T06:04:03.784Z,2.00
2022-10-04T06:05:04.041Z,2.10
2022-10-04T06:06:04.278Z,2.10
2022-10-04T06:07:04.547Z,2.30
2022-10-04T06:08:04.810Z,2.00
2022-10-04T06:09:05.063Z,2.30
2022-10-04T06:10:05.317Z,2.70
2022-10-04T06:11:05.577Z,2.00
2022-10-04T06:12:05.827Z,2.10
2022-10-04T06:13:06.190Z,2.00
2022-10-04T06:14:06.322Z,1.90
2022-10-04T06:15:06.590Z,1.90
2022-10-04T06:16:06.841Z,1.80
2022-10-04T06:17:07.155Z,1.80
2022-10-04T06:18:07.445Z,2.40
2022-10-04T06:19:08.026Z,2.10
2022-10-04T06:20:08.711Z,1.90
2022-10-04T06:21:08.193Z,2.10
2022-10-04T06:22:08.474Z,2.10
2022-10-04T06:23:08.752Z,2.60
2022-10-04T06:24:09.012Z,2.10
2022-10-04T06:25:09.263Z,1.70
2022-10-04T06:26:09.542Z,1.90
2022-10-04T06:27:09.774Z,1.90
2022-10-04T06:28:10.120Z,1.60
2022-10-04T06:29:10.353Z,2.60
2022-10-04T06:30:10.615Z,1.80
2022-10-04T06:31:10.926Z,2.00
2022-10-04T06:32:11.184Z,1.90
2022-10-04T06:33:11.454Z,2.00
2022-10-04T06:34:11.715Z,2.10
2022-10-04T06:35:11.966Z,2.20
2022-10-04T06:36:12.216Z,1.80
2022-10-04T06:37:12.476Z,2.10
2022-10-04T06:38:12.755Z,2.00
2022-10-04T06:39:13.016Z,2.00
2022-10-04T06:40:13.279Z,1.60
2022-10-04T06:41:13.508Z,2.00
2022-10-04T06:42:13.818Z,1.80
2022-10-04T06:43:14.083Z,1.90
2022-10-04T06:44:14.350Z,1.90
2022-10-04T06:45:14.608Z,1.90
2022-10-04T06:46:14.916Z,1.70
2022-10-04T06:47:15.151Z,1.50
2022-10-04T06:48:15.419Z,1.70
2022-10-04T06:49:15.688Z,1.50
2022-10-04T06:50:15.939Z,2.00
2022-10-04T06:51:16.192Z,1.70
2022-10-04T06:52:17.595Z,1.70
2022-10-04T06:53:16.767Z,2.00
2022-10-04T06:54:17.001Z,2.10
2022-10-04T06:55:17.242Z,2.00
2022-10-04T06:56:17.482Z,1.90
2022-10-04T06:57:17.743Z,1.60
2022-10-04T06:58:18.033Z,2.20
2022-10-04T06:59:18.284Z,1.60
2022-10-04T07:00:18.543Z,2.20
2022-10-04T07:01:18.854Z,1.50
2022-10-04T07:02:19.221Z,1.40
2022-10-04T07:03:19.378Z,2.00
2022-10-04T07:04:19.647Z,2.00
2022-10-04T07:05:19.910Z,2.50
2022-10-04T07:06:20.165Z,1.90
2022-10-04T07:07:20.448Z,2.50
2022-10-04T07:08:20.715Z,2.10
2022-10-04T07:09:20.968Z,2.30
2022-10-04T07:10:21.259Z,1.70
2022-10-04T07:11:21.499Z,2.00
2022-10-04T07:12:21.750Z,1.70
2022-10-04T07:13:22.012Z,2.20
2022-10-04T07:14:22.271Z,1.80
2022-10-04T07:15:22.519Z,1.80
2022-10-04T07:16:22.804Z,2.40
2022-10-04T07:17:23.088Z,1.40
2022-10-04T07:18:23.341Z,1.70
2022-10-04T07:19:23.593Z,2.20
2022-10-04T07:20:23.905Z,2.10
2022-10-04T07:21:24.139Z,2.30
2022-10-04T07:22:24.381Z,2.20
2022-10-04T07:23:28.353Z,1.70
2022-10-04T07:24:24.919Z,1.90
2022-10-04T07:25:25.179Z,1.70
2022-10-04T07:26:25.443Z,2.00
2022-10-04T07:27:25.700Z,2.20
2022-10-04T07:28:26.026Z,2.40
2022-10-04T07:29:26.193Z,2.10
2022-10-04T07:30:26.446Z,2.10
2022-10-04T07:31:26.734Z,2.00
2022-10-04T07:32:27.001Z,2.30
2022-10-04T07:33:27.292Z,2.20
2022-10-04T07:34:27.541Z,2.10
2022-10-04T07:35:27.794Z,2.60
2022-10-04T07:36:28.057Z,2.40
2022-10-04T07:37:28.324Z,2.10
2022-10-04T07:38:28.575Z,1.80
2022-10-04T07:39:28.878Z,1.90
2022-10-04T07:40:29.221Z,2.30
2022-10-04T07:41:29.455Z,2.30
2022-10-04T07:42:29.717Z,1.60
2022-10-04T07:43:30.036Z,1.70
2022-10-04T07:44:30.209Z,2.00
2022-10-04T07:45:30.487Z,2.10
2022-10-04T07:46:31.050Z,2.00
2022-10-04T07:47:31.109Z,2.10
2022-10-04T07:48:31.393Z,2.20
2022-10-04T07:49:31.685Z,2.10
2022-10-04T07:50:31.919Z,2.10
2022-10-04T07:51:32.197Z,1.60
2022-10-04T07:52:32.498Z,1.70
2022-10-04T07:53:32.759Z,1.80
2022-10-04T07:54:33.023Z,1.90
2022-10-04T07:55:33.283Z,2.10
2022-10-04T07:56:33.531Z,2.00
2022-10-04T07:57:33.822Z,1.70
2022-10-04T07:58:34.092Z,1.90
2022-10-04T07:59:34.365Z,2.30
2022-10-04T08:00:34.614Z,2.00
2022-10-04T08:01:34.999Z,1.40
2022-10-04T08:02:35.223Z,1.40
2022-10-04T08:03:35.442Z,1.60
2022-10-04T08:04:35.698Z,1.70
2022-10-04T08:05:35.977Z,1.60
2022-10-04T08:06:36.245Z,2.10
2022-10-04T08:07:36.533Z,1.70
2022-10-04T08:08:36.766Z,1.60
2022-10-04T08:09:37.018Z,1.50
2022-10-04T08:10:37.265Z,1.80
2022-10-04T08:11:37.569Z,1.70
2022-10-04T08:12:37.817Z,2.30
2022-10-04T08:13:38.078Z,2.20
2022-10-04T08:14:38.346Z,1.90
2022-10-04T08:15:38.669Z,2.20
2022-10-04T08:16:38.840Z,1.80
2022-10-04T08:17:39.136Z,2.00
2022-10-04T08:18:39.400Z,2.40
2022-10-04T08:19:39.652Z,2.20
2022-10-04T08:20:39.901Z,2.20
2022-10-04T08:21:40.160Z,2.10
2022-10-04T08:22:40.460Z,2.40
2022-10-04T08:23:40.732Z,1.40
2022-10-04T08:24:41.478Z,1.70
2022-10-04T08:25:41.283Z,1.80
2022-10-04T08:26:42.038Z,1.80
2022-10-04T08:27:43.352Z,2.10
2022-10-04T08:28:42.182Z,2.70
2022-10-04T08:29:42.459Z,1.70
2022-10-04T08:30:43.553Z,1.80
2022-10-04T08:31:42.993Z,1.80
2022-10-04T08:32:44.030Z,1.70
2022-10-04T08:33:43.583Z,2.20
2022-10-04T08:34:43.837Z,1.90
2022-10-04T08:35:44.085Z,1.70
2022-10-04T08:36:44.850Z,1.90
2022-10-04T08:37:44.630Z,2.00
2022-10-04T08:38:44.883Z,2.00
2022-10-04T08:39:45.173Z,1.90
2022-10-04T08:40:45.434Z,2.20
2022-10-04T08:41:45.715Z,1.70
2022-10-04T08:42:45.985Z,1.70
2022-10-04T08:43:46.276Z,2.30
2022-10-04T08:44:46.548Z,1.80
2022-10-04T08:45:46.827Z,1.50
2022-10-04T08:46:47.556Z,1.70
2022-10-04T08:47:47.380Z,2.20
2022-10-04T08:48:47.623Z,2.20
2022-10-04T08:49:47.901Z,1.90
2022-10-04T08:50:48.144Z,1.70
2022-10-04T08:51:48.403Z,1.70
2022-10-04T08:52:48.660Z,1.80
2022-10-04T08:53:48.917Z,1.70
2022-10-04T08:54:49.161Z,1.80
2022-10-04T08:55:49.439Z,2.30
2022-10-04T08:56:49.698Z,1.70
2022-10-04T08:57:49.963Z,1.70
2022-10-04T08:58:50.224Z,1.80
2022-10-04T08:59:50.492Z,1.60
2022-10-04T09:00:50.759Z,1.50
2022-10-04T09:01:51.050Z,1.40
2022-10-04T09:02:51.373Z,1.80
2022-10-04T09:03:51.653Z,1.90
2022-10-04T09:04:51.922Z,1.50
2022-10-04T09:05:52.204Z,1.70
2022-10-04T09:06:53.774Z,1.90
2022-10-04T09:07:52.818Z,2.20
2022-10-04T09:08:53.088Z,1.90
2022-10-04T09:09:53.336Z,1.80
2022-10-04T09:10:53.595Z,1.10
2022-10-04T09:11:53.836Z,1.60
2022-10-04T09:12:54.122Z,2.00
2022-10-04T09:13:54.397Z,2.40
2022-10-04T09:15:02.147Z,1.40
2022-10-04T09:15:55.070Z,1.70
2022-10-04T09:16:55.338Z,1.90
2022-10-04T09:17:55.618Z,2.40
2022-10-04T09:18:55.848Z,1.50
2022-10-04T09:20:01.616Z,1.90
2022-10-04T09:20:57.404Z,1.80
2022-10-04T09:21:56.719Z,1.70
2022-10-04T09:22:56.958Z,1.40
2022-10-04T09:23:57.189Z,1.50
2022-10-04T09:24:57.422Z,1.60
2022-10-04T09:25:57.674Z,1.70
2022-10-04T09:26:57.955Z,1.70
2022-10-04T09:27:58.229Z,1.80
2022-10-04T09:29:03.877Z,1.50
2022-10-04T09:29:59.848Z,2.00
2022-10-04T09:30:59.178Z,2.30
2022-10-04T09:31:59.424Z,1.80
2022-10-04T09:32:59.721Z,2.00
2022-10-04T09:33:59.954Z,1.40
2022-10-04T09:35:00.204Z,1.70
2022-10-04T09:36:00.491Z,1.50
2022-10-04T09:37:00.717Z,2.10
2022-10-04T09:38:00.959Z,1.50
2022-10-04T09:39:25.616Z,1.70
2022-10-04T09:40:02.543Z,1.90
2022-10-04T09:41:02.006Z,1.70
2022-10-04T09:42:02.190Z,1.90
2022-10-04T09:43:02.505Z,1.60
2022-10-04T09:44:03.969Z,1.30
2022-10-04T09:45:03.045Z,1.60
2022-10-04T09:46:03.330Z,1.70
2022-10-04T09:47:03.558Z,1.30
2022-10-04T09:48:03.799Z,1.70
2022-10-04T09:49:04.022Z,1.50
2022-10-04T09:50:04.264Z,1.40
2022-10-04T09:51:04.511Z,1.90
2022-10-04T09:52:04.781Z,1.40
2022-10-04T09:53:05.023Z,2.10
2022-10-04T09:54:05.253Z,1.80
2022-10-04T09:55:05.487Z,1.30
2022-10-04T09:56:05.734Z,1.60
2022-10-04T09:57:05.983Z,1.70
2022-10-04T09:58:06.229Z,1.70
2022-10-04T09:59:06.474Z,1.50
2022-10-04T10:00:06.713Z,2.00
2022-10-04T10:01:06.945Z,2.10
2022-10-04T10:02:07.264Z,2.00
2022-10-04T10:03:10.936Z,1.70
2022-10-04T10:04:08.825Z,1.60
2022-10-04T10:05:08.116Z,1.90
2022-10-04T10:06:08.346Z,1.90
2022-10-04T10:07:08.608Z,1.80
2022-10-04T10:08:08.856Z,1.60
2022-10-04T10:09:09.088Z,1.40
2022-10-04T10:10:09.329Z,1.70
2022-10-04T10:11:09.557Z,1.50
2022-10-04T10:12:09.862Z,1.50
2022-10-04T10:13:10.091Z,1.80
2022-10-04T10:14:10.329Z,1.40
2022-10-04T10:15:11.522Z,1.70
2022-10-04T10:16:10.859Z,1.50
2022-10-04T10:17:11.112Z,1.70
2022-10-04T10:18:11.362Z,1.60
2022-10-04T10:19:11.595Z,2.40
2022-10-04T10:20:11.835Z,1.80
2022-10-04T10:21:12.054Z,1.40
2022-10-04T10:22:12.320Z,1.50
2022-10-04T10:23:12.553Z,1.40
2022-10-04T10:24:12.796Z,1.20
2022-10-04T10:25:13.047Z,1.20
2022-10-04T10:26:13.302Z,2.10
2022-10-04T10:27:13.546Z,2.00
2022-10-04T10:28:13.825Z,1.20
2022-10-04T10:29:14.067Z,1.50
2022-10-04T10:30:14.313Z,1.60
2022-10-04T10:31:14.579Z,1.10
2022-10-04T10:32:14.864Z,1.60
2022-10-04T10:33:15.081Z,1.40
2022-10-04T10:34:15.333Z,1.10
2022-10-04T10:35:15.556Z,1.30
2022-10-04T10:36:15.810Z,2.00
2022-10-04T10:37:16.060Z,1.20
2022-10-04T10:38:16.300Z,1.80
2022-10-04T10:39:16.608Z,1.20
2022-10-04T10:40:16.834Z,1.40
2022-10-04T10:41:17.072Z,1.40
2022-10-04T10:42:17.327Z,1.40
2022-10-04T10:43:17.583Z,1.40
2022-10-04T10:44:17.830Z,1.30
2022-10-04T10:45:18.065Z,1.60
2022-10-04T10:46:18.350Z,1.30
2022-10-04T10:47:18.584Z,1.00
2022-10-04T10:48:18.821Z,1.60
2022-10-04T10:49:22.284Z,1.20
2022-10-04T10:50:19.293Z,1.30
2022-10-04T10:51:19.532Z,1.20
2022-10-04T10:52:19.784Z,1.10
2022-10-04T10:53:20.044Z,1.40
2022-10-04T10:54:20.293Z,1.40
2022-10-04T10:55:20.532Z,1.10
2022-10-04T10:56:20.787Z,1.30
2022-10-04T10:57:22.022Z,1.10
2022-10-04T10:58:21.316Z,1.20
2022-10-04T10:59:21.562Z,1.20
2022-10-04T11:00:21.803Z,1.10
2022-10-04T11:01:22.064Z,1.20
2022-10-04T11:02:37.116Z,1.30
2022-10-04T11:03:27.192Z,1.60
2022-10-04T11:04:23.928Z,1.40
2022-10-04T11:05:23.239Z,1.30
2022-10-04T11:06:23.489Z,1.60
2022-10-04T11:07:23.741Z,1.60
2022-10-04T11:08:23.991Z,1.70
2022-10-04T11:09:24.228Z,1.00
2022-10-04T11:10:24.466Z,1.00
2022-10-04T11:11:24.705Z,1.10
2022-10-04T11:12:24.963Z,1.00
2022-10-04T11:13:25.229Z,1.20
2022-10-04T11:14:25.472Z,1.20
2022-10-04T11:15:25.754Z,1.50
2022-10-04T11:16:26.103Z,1.00
2022-10-04T11:17:26.366Z,0.80
2022-10-04T11:18:26.643Z,1.00
2022-10-04T11:19:26.904Z,1.00
2022-10-04T11:20:27.171Z,0.90
2022-10-04T11:21:27.416Z,1.30
2022-10-04T11:22:27.744Z,0.80
2022-10-04T11:23:28.000Z,1.10
2022-10-04T11:24:28.237Z,0.60
2022-10-04T11:25:28.534Z,0.90
2022-10-04T11:26:28.797Z,1.20
2022-10-04T11:27:29.134Z,0.90
2022-10-04T11:28:29.390Z,0.90
2022-10-04T11:29:29.647Z,0.80
2022-10-04T11:30:29.915Z,0.90
2022-10-04T11:31:30.246Z,0.90
2022-10-04T11:32:30.422Z,0.80
2022-10-04T11:33:30.665Z,1.10
2022-10-04T11:34:30.912Z,1.10
2022-10-04T11:35:31.175Z,1.00
2022-10-04T11:36:31.411Z,1.30
2022-10-04T11:37:31.672Z,0.90
2022-10-04T11:38:31.914Z,0.80
2022-10-04T11:39:32.164Z,0.90
2022-10-04T11:40:32.395Z,0.80
2022-10-04T11:41:32.633Z,0.60
2022-10-04T11:42:32.904Z,0.80
2022-10-04T11:43:33.187Z,0.70
2022-10-04T11:44:33.450Z,0.70
2022-10-04T11:45:33.747Z,0.90
2022-10-04T11:46:34.070Z,0.80
2022-10-04T11:47:34.378Z,1.00
2022-10-04T11:48:34.636Z,1.00
2022-10-04T11:49:34.911Z,0.80
2022-10-04T11:50:35.170Z,0.90
2022-10-04T11:51:35.418Z,1.00
2022-10-04T11:52:35.696Z,1.00
2022-10-04T11:53:35.960Z,0.50
2022-10-04T11:54:36.210Z,1.00
2022-10-04T11:55:36.469Z,1.10
2022-10-04T11:56:36.730Z,0.90
2022-10-04T11:57:36.979Z,0.90
2022-10-04T11:58:37.220Z,0.70
2022-10-04T11:59:37.472Z,0.80
2022-10-04T12:00:37.709Z,1.00
2022-10-04T12:01:37.943Z,1.10
2022-10-04T12:02:38.231Z,0.90
2022-10-04T12:03:38.544Z,0.80
2022-10-04T12:04:38.866Z,1.00
2022-10-04T12:05:39.132Z,0.90
2022-10-04T12:06:39.375Z,0.90
2022-10-04T12:07:39.656Z,0.70
2022-10-04T12:08:39.884Z,0.90
2022-10-04T12:09:40.125Z,1.00
2022-10-04T12:10:40.356Z,1.00
2022-10-04T12:11:40.596Z,0.90
2022-10-04T12:12:40.847Z,0.90
2022-10-04T12:13:41.090Z,0.80
2022-10-04T12:14:41.340Z,0.90
2022-10-04T12:15:41.593Z,1.10
2022-10-04T12:16:41.887Z,0.90
2022-10-04T12:17:42.179Z,0.90
2022-10-04T12:18:42.411Z,1.00
2022-10-04T12:19:42.672Z,1.20
2022-10-04T12:20:42.912Z,0.90
2022-10-04T12:21:43.159Z,0.70
2022-10-04T12:22:43.442Z,1.20
2022-10-04T12:23:43.682Z,1.00
2022-10-04T12:24:43.913Z,1.10
2022-10-04T12:25:44.155Z,0.70
2022-10-04T12:26:44.646Z,0.80
2022-10-04T12:27:44.671Z,1.00
2022-10-04T12:28:44.976Z,1.10
2022-10-04T12:29:45.187Z,0.90
2022-10-04T12:30:45.427Z,0.90
2022-10-04T12:31:45.786Z,0.80
2022-10-04T12:32:45.920Z,1.00
2022-10-04T12:33:46.168Z,0.90
2022-10-04T12:34:46.397Z,0.70
2022-10-04T12:35:46.638Z,1.10
2022-10-04T12:36:47.303Z,1.30
2022-10-04T12:37:47.162Z,1.10
2022-10-04T12:38:47.417Z,1.00
2022-10-04T12:39:47.692Z,1.10
2022-10-04T12:40:47.910Z,0.80
2022-10-04T12:41:48.183Z,0.80
2022-10-04T12:42:48.425Z,0.80
2022-10-04T12:43:48.661Z,1.10
2022-10-04T12:44:48.986Z,1.00
2022-10-04T12:45:49.335Z,1.00
2022-10-04T12:46:49.561Z,1.20
2022-10-04T12:47:49.871Z,1.20
2022-10-04T12:48:50.114Z,0.90
2022-10-04T12:49:50.362Z,1.20
2022-10-04T12:50:50.631Z,1.20
2022-10-04T12:51:50.946Z,1.10
2022-10-04T12:52:51.222Z,1.30
2022-10-04T12:53:54.460Z,1.20
2022-10-04T12:54:52.806Z,1.20
2022-10-04T12:55:52.121Z,1.30
2022-10-04T12:56:52.357Z,1.30
2022-10-04T12:57:52.619Z,0.80
2022-10-04T12:58:52.868Z,1.30
2022-10-04T12:59:53.165Z,1.30
2022-10-04T13:00:53.451Z,1.10
2022-10-04T13:01:53.744Z,1.30
2022-10-04T13:02:54.022Z,1.10
2022-10-04T13:03:54.309Z,1.30
2022-10-04T13:04:54.547Z,1.30
2022-10-04T13:05:54.801Z,1.10
2022-10-04T13:06:55.057Z,1.10
2022-10-04T13:07:55.319Z,1.00
2022-10-04T13:08:55.595Z,1.00
2022-10-04T13:10:22.428Z,1.30
2022-10-04T13:10:57.085Z,1.10
2022-10-04T13:11:56.413Z,1.20
2022-10-04T13:12:56.720Z,1.20
2022-10-04T13:13:57.005Z,1.40
2022-10-04T13:14:57.260Z,1.30
2022-10-04T13:17:59.114Z,1.00
2022-10-04T13:18:58.440Z,1.40
2022-10-04T13:19:58.746Z,1.20
2022-10-04T13:20:59.005Z,1.40
2022-10-04T13:21:59.277Z,1.30
2022-10-04T13:22:59.521Z,1.00
2022-10-04T13:23:59.790Z,1.30